Chitina, AK

2:15 PM AKST on November 26, 2014 (GMT -0900)
Gulkana | Change Station
CLOSE
Current Station
Airport
Location: Gulkana,
Elevation: 1578 ft
Nearby Weather Stations

Elev 1578 ft 62.16 °N, 145.46 °W | Updated 22 minutes ago

Partly Cloudy
Partly Cloudy
10 °F
Feels Like 10 °F
N
0
Wind Variable Wind from North

Today
High -- | Low -- °F
--% Chance of Precip.
Yesterday
High -- | Low -- °F
Precip. -- in
9:08 AM 3:29 PM
Waxing Crescent, 23% visible
Pressure 30.53 in
Visibility 10.0 miles
Clouds Few 2900 ft
Dew Point 4 °F
Humidity 76%
Rainfall 0.00 in
Snow Depth Not available.
UV 0 out of 12
Pollen Not available.
Air Quality Not available.
Flu Activity Not available.
METAR PAGK 262253Z AUTO 00000KT 10SM FEW029 M12/M16 A3034 RMK AO2 SLP336 T11221156 TSNO

More Conditions Fewer Conditions

Pressure 30.53 in
Visibility 10.0 miles
Clouds Few 2900 ft
Dew Point 4 °F
Humidity 76%
Rainfall 0.00 in
Snow Depth Not available.
UV 0 out of 12
Pollen Not available.
Air Quality Not available.
Flu Activity Not available.
METAR PAGK 262253Z AUTO 00000KT 10SM FEW029 M12/M16 A3034 RMK AO2 SLP336 T11221156 TSNO

More Conditions Fewer Conditions

10-Day Weather Forecast

Almanac

Astronomy

Nov. 26, 2014 Rise Set
Actual Time
Civil Twilight
Nautical Twilight
Astronomical Twilight
Moon
Length of Visible Light
Length of Day
Tomorrow will be .
, % of the Moon is Illuminated

Today's Extremes

State Highs State Lows

Community

WunderPhotos

Upload Photos

1,773,913 photos uploaded!

WunderBlogs® & News

Nearby

Air Quality

  Air Quality AQ Index Pollutant
Not available.

Snow Depth

Station Depth Elevation

Earthquake Activity

City Distance Mag. Time & Date
Minimum magnitude displayed is 2.5.

Coastal Water Temperatures

Place Temperature

Nearby Weather Stations